Home Team Position History
You can show your support by sponsoring this page for $50.  
Your ad/message will appear in this space for one year.  
Thank you for your support!       Team History Index Boston Red Sox
         
          Shortstop
             
Pos St All- Other Shortstop Fielding Statistics Pos St Batting Statistics as Shortstop Win Shares Pos St
Year Rank Rank Name HOF MVP Star Rookie GG SS Team Stdg Bats Age Pos Games PO Assts Err DP F Pct. Year Rank Rank Name At Bats Hits 2B 3B HR Runs RBI BB IBB SO HP SH SF SB CS GDP BA OBA SA OPS RC B WS F WS T WS BWS/G FWS/G TWS/G Adj WSQ Year Rank Rank Name
1901 2 2 Freddy Parent   R   BOS 2 R 25   138 260 446 63 52 .918   1901 2 2 Freddy Parent 517 158 23 9 4 87 59 41 9 21 16 .306 .367 .408 .775 93   14.4 6.3 20.7 .104 .046 .150 22.38 1901 2 2 Freddy Parent
         
1902 3 3 Freddy Parent     BOS 3 R 26   138 287 496 58 60 .931   1902 3 3 Freddy Parent 567 156 31 8 3 91 62 24 4 16 16 .275 .309 .374 .683 71   8.9 7.1 16.0 .064 .051 .116 15.17 1902 3 3 Freddy Parent
         
1903 1 1 Freddy Parent     BOS 1 R 27   139 296 456 57 36 .930   1903 1 1 Freddy Parent 560 170 31 17 4 83 80 13 6 13 24 .304 .326 .441 .767 92   18.4 7.8 26.2 .132 .056 .188 30.35 1903 1 1 Freddy Parent
         
1904 1 1 Freddy Parent     BOS 1 R 28   155 327 493 63 44 .929   1904 1 1 Freddy Parent 591 172 22 9 6 85 77 28 6 28 20 .291 .330 .389 .719 83   19.6 9.1 28.7 .126 .059 .185 31.87 1904 1 1 Freddy Parent
         
1905 5 5 Freddy Parent     BOS 4 R 29   153 294 461 66 48 .920   1905 5 5 Freddy Parent 602 141 16 5 0 55 33 47 6 35 25 .234 .296 .277 .573 59   8.2 6.9 15.1 .054 .045 .099 13.68 1905 5 5 Freddy Parent
         
1906 8 7 Freddy Parent     BOS 8 R 30   143 312 472 56 48 .933   1906 8 7 Freddy Parent 576 135 13 10 1 64 47 30 4 17 15 .234 .277 .297 .574 49   5.6 4.4 10.0 .039 .031 .070 6.68 1906 8 7 Freddy Parent
         
1907 9 8 Heinie Wagner   R   BOS 7 R 26   109 283 387 50 31 .931   1907 9 8 Heinie Wagner 378 81 10 4 2 28 21 30 2 11 20 .214 .276 .278 .554 35   3.7 5.0 8.7 .034 .046 .080 6.95 1907 9 8 Heinie Wagner
1907 10 Freddy Parent     BOS 7 R 31 LF   43 80 155 20 16 .922   1907 10 Freddy Parent 172 48 8 2 0 22 11 9 2 7 5 .279 .322 .349 .671 20   3.5 2.3 5.8 .081 .053 .135 6.02 1907 10 Freddy Parent
         
1908 2 2 Heinie Wagner     BOS 5 R 27   153 373 569 61 51 .939   1908 2 2 Heinie Wagner 526 130 11 5 1 62 46 27 3 21 20 .247 .288 .293 .581 53   9.3 8.3 17.6 .061 .054 .115 17.37 1908 2 2 Heinie Wagner
         
1909 3 3 Heinie Wagner     BOS 3 R 28   123 282 413 50 40 .933   1909 3 3 Heinie Wagner 427 109 16 7 1 53 49 35 3 9 18 .255 .316 .333 .649 50   10.5 6.3 16.8 .085 .051 .137 17.44 1909 3 3 Heinie Wagner
1909 13 Charlie French   R   BOS 3 L 25 2B   23 42 68 14 5 .887   1909 13 Charlie French 75 19 1 0 0 7 6 7 1 2 4 .253 .325 .267 .592 8   1.6 0.8 2.4 .070 .035 .104 2.17 1909 13 Charlie French
         
1910 4 4 Heinie Wagner     BOS 4 R 29   140 303 424 57 40 .927   1910 4 4 Heinie Wagner 491 134 26 7 1 61 52 44 2 20 26 .273 .335 .360 .695 65   12.9 4.8 17.7 .092 .034 .126 17.29 1910 4 4 Heinie Wagner
         
1911 4 4 Steve Yerkes   R   BOS 5 R 23   116 232 337 45 37 .927   1911 4 4 Steve Yerkes 413 115 20 2 1 58 47 43 5 26 12 .278 .354 .344 .698 53   7.1 3.9 11.0 .061 .034 .095 10.64 1911 4 4 Steve Yerkes
1911 11 Heinie Wagner     BOS 5 R 30 2B   32 75 94 26 14 .867   1911 11 Heinie Wagner 116 30 6 4 0 15 17 13 2 3 7 .259 .344 .379 .723 16   2.4 1.3 3.7 .075 .041 .116 3.95 1911 11 Heinie Wagner
         
1912 1 1 Heinie Wagner 10     BOS 1 R 31   144 332 391 61 43 .922   1912 1 1 Heinie Wagner 504 138 25 6 2 75 68 62 4 14 21 .274 .358 .359 .717 78   13.6 6.3 19.9 .094 .044 .138 23.04 1912 1 1 Heinie Wagner
         
1913 6 6 Heinie Wagner T12     BOS 4 R 32   105 274 311 39 36 .938   1913 6 6 Heinie Wagner 352 80 13 8 2 41 33 39 28 7 2 9 .227 .317 .327 .644 39   5.7 5.1 10.8 .054 .049 .103 10.32 1913 6 6 Heinie Wagner
1913 10 Hal Janvrin   R   BOS 4 R 20   48 80 124 17 8 .923   1913 10 Hal Janvrin 164 34 3 1 2 11 15 14 16 1 8 10 .207 .274 .274 .548 12   0.2 1.8 2.0 .004 .038 .042 1.22 1913 10 Hal Janvrin
         
1914 4 4 Everett Scott T14   R   BOS 2 R 21   143 324 408 39 50 .949   1914 4 4 Everett Scott 539 129 15 6 2 66 37 32 43 3 26 9 14 .239 .286 .301 .587 46   5.7 7.6 13.3 .040 .053 .093 12.70 1914 4 4 Everett Scott
1914 10 Hal Janvrin     BOS 2 R 21 1B,2B   20 40 47 15 10 .853   1914 10 Hal Janvrin 71 17 3 1 0 9 7 5 7 0 3 4 3 .239 .289 .310 .599 7   1.0 0.6 1.6 .050 .030 .080 1.42 1914 10 Hal Janvrin
         
1915 9 7 Everett Scott     BOS 1 R 22   100 198 298 20 31 .961   1915 9 7 Everett Scott 359 72 11 0 0 25 28 17 21 0 23 4 7 .201 .237 .231 .468 18   - 5.6 5.6 .000 .056 .056 4.17 1915 9 7 Everett Scott
1915 8 Hal Janvrin     BOS 1 R 22 3B   64 105 160 24 16 .917   1915 8 Hal Janvrin 220 59 6 1 0 29 26 10 19 6 13 6 10 .268 .318 .305 .623 22   3.1 2.2 5.3 .048 .034 .083 4.80 1915 8 Hal Janvrin
         
1916 5 5 Everett Scott     BOS 1 R 23   121 217 339 19 36 .967   1916 5 5 Everett Scott 360 84 19 2 0 36 27 23 24 3 30 8 .233 .285 .297 .582 31   4.3 6.6 10.9 .036 .055 .090 10.46 1916 5 5 Everett Scott
1916 11 Hal Janvrin     BOS 1 R 23 2B   59 110 122 20 22 .921   1916 11 Hal Janvrin 174 39 6 2 0 18 15 18 18 1 11 3 .224 .301 .282 .583 16   2.6 2.6 5.2 .044 .044 .088 4.94 1916 11 Hal Janvrin
         
1917 4 4 Everett Scott     BOS 2 R 24   157 315 483 39 64 .953   1917 4 4 Everett Scott 528 127 24 7 0 40 50 20 46 0 41 12 .241 .268 .313 .581 45   5.2 9.4 14.6 .033 .060 .093 12.73 1917 4 4 Everett Scott
         
1918 6 6 Everett Scott     BOS 1 R 25   126 270 419 17 38 .976   1918 6 6 Everett Scott 443 98 11 5 0 40 43 12 16 0 26 11 .221 .242 .269 .511 28   1.0 7.8 8.8 .008 .062 .070 6.95 1918 6 6 Everett Scott
         
1919 4 4 Everett Scott     BOS 6 R 26   138 276 423 17 63 .976   1919 4 4 Everett Scott 507 141 19 0 0 41 38 19 26 1 13 8 .278 .306 .316 .622 49   6.7 7.0 13.7 .049 .051 .099 12.24 1919 4 4 Everett Scott
         
1920 4 4 Everett Scott     BOS 5 R 27   154 330 496 23 64 .973   1920 4 4 Everett Scott 569 153 21 12 4 41 61 21 15 4 21 4 11 .269 .300 .369 .669 61   6.4 8.7 15.1 .042 .056 .098 13.70 1920 4 4 Everett Scott
         
Pos St All- Other Shortstop Fielding Statistics Pos St Batting Statistics as Shortstop Win Shares Pos St
Year Rank Rank Name HOF MVP Star Rookie GG SS Team Stdg Bats Age Pos Games PO Assts Err DP F Pct. Year Rank Rank Name At Bats Hits 2B 3B HR Runs RBI BB IBB SO HP SH SF SB CS GDP BA OBA SA OPS RC B WS F WS T WS BWS/G FWS/G TWS/G Adj WSQ Year Rank Rank Name
1921 3 3 Everett Scott     BOS 5 R 28   154 380 528 26 94 .972   1921 3 3 Everett Scott 576 151 21 9 1 65 62 27 21 0 17 5 9 .262 .295 .335 .630 57   3.6 12.7 16.3 .023 .082 .106 16.03 1921 3 3 Everett Scott
         
1922 10 8 Johnny Mitchell   R   BOS 8 B 27   58 98 184 11 31 .962   1922 10 8 Johnny Mitchell 203 51 4 1 1 20 8 16 17 4 15 1 2 .251 .318 .296 .614 20   1.2 1.7 2.9 .021 .029 .050 2.02 1922 10 8 Johnny Mitchell
1922 8 Frank O'Rourke     BOS 8 R 27 3B   48 86 134 22 17 .909   1922 8 Frank O'Rourke 152 40 10 2 1 20 12 14 20 2 5 4 4 .263 .333 .375 .708 18   2.0 1.2 3.2 .042 .025 .067 2.58 1922 8 Frank O'Rourke
1922 11 Pinky Pittenger   R   BOS 8 R 23 3B   28 47 86 13 0 .911   1922 11 Pinky Pittenger 85 22 1 0 0 7 3 4 5 1 3 1 2 .259 .300 .271 .571 6   - 0.8 0.8 .000 .029 .029 0.43 1922 11 Pinky Pittenger
1922 9 Joe Dugan     BOS 8 R 25 3B   20 45 46 6 11 .938   1922 9 Joe Dugan 81 23 5 1 1 11 9 2 7 0 2 0 1 .284 .301 .407 .708 10   1.2 1.0 2.2 .060 .050 .110 2.28 1922 9 Joe Dugan
         
1923 7 7 Johnny Mitchell     BOS 8 B 28   87 184 264 18 40 .961   1923 7 7 Johnny Mitchell 328 74 14 4 0 38 18 32 17 1 3 7 10 .226 .296 .293 .589 27   0.3 4.0 4.3 .003 .046 .049 2.81 1923 7 7 Johnny Mitchell
1923 12 Chick Fewster     BOS 8 R 27 2B   36 76 100 17 10 .912   1923 12 Chick Fewster 122 29 4 0 0 14 6 17 15 1 2 3 6 .238 .336 .270 .606 11   0.4 0.9 1.3 .011 .025 .036 0.73 1923 12 Chick Fewster
1923 10 Norm McMillan   R   BOS 8 R 27 2B,3B   28 60 92 7 21 .956   1923 10 Norm McMillan 100 25 5 1 0 8 9 6 10 0 2 3 1 .250 .292 .320 .612 10   0.8 1.5 2.3 .029 .054 .082 1.93 1923 10 Norm McMillan
         
1924 7 7 Dud Lee     BOS 7 L 24   90 198 246 30 43 .937   1924 7 7 Dud Lee 288 73 9 4 0 36 29 40 17 3 14 8 4 .253 .350 .313 .663 35   2.9 2.2 5.1 .032 .024 .057 3.68 1924 7 7 Dud Lee
1924 9 Howard Shanks     BOS 7 R 33 3B   41 62 75 4 15 .972   1924 9 Howard Shanks 111 29 9 2 0 13 14 12 7 0 5 1 0 .261 .333 .378 .711 14   1.4 1.9 3.3 .034 .046 .080 2.84 1924 9 Howard Shanks
1924 11 Chappie Geygan   R   BOS 7 R 21   32 63 76 7 12 .952   1924 11 Chappie Geygan 82 21 5 2 0 7 4 4 16 2 4 0 2 .256 .307 .366 .673 9   0.6 0.7 1.3 .019 .022 .041 0.79 1924 11 Chappie Geygan
1924 10 Homer Ezzell     BOS 7 R 28 3B   21 30 59 12 9 .881   1924 10 Homer Ezzell 68 19 2 1 0 9 8 3 5 0 2 3 1 .279 .310 .338 .648 7   0.4 1.3 1.7 .019 .062 .081 1.47 1924 10 Homer Ezzell
         
1925 13 8 Dud Lee     BOS 8 L 25   84 188 260 37 54 .924   1925 13 8 Dud Lee 255 57 7 3 0 22 19 34 19 0 6 2 3 .224 .315 .275 .590 23   0.4 2.3 2.7 .005 .027 .032 1.59 1925 13 8 Dud Lee
1925 11 Bud Connolly   R   BOS 8 R 24   34 60 72 7 13 .950   1925 11 Bud Connolly 101 26 7 1 0 11 20 22 9 0 2 0 3 .257 .390 .347 .737 15   1.5 0.8 2.3 .044 .024 .068 1.96 1925 11 Bud Connolly
1925 12 Jack Rothrock   R   BOS 8 B 20   22 37 38 9 6 .893   1925 12 Jack Rothrock 55 19 3 3 0 6 7 3 7 0 0 0 0 .345 .379 .509 .888 10   1.6 0.3 1.9 .073 .014 .086 1.83 1925 12 Jack Rothrock
         
1926 2 2 Topper Rigney T21     BOS 8 R 29   146 286 492 25 80 .969   1926 2 2 Topper Rigney 525 142 32 6 4 71 53 108 31 0 26 6 8 .270 .395 .377 .772 81   10.8 5.9 16.7 .074 .040 .114 16.67 1926 2 2 Topper Rigney
         
1927 4 3 Buddy Myer     BOS 8 L 23   101 238 311 35 64 .940   1927 4 3 Buddy Myer 377 109 18 9 2 47 37 38 12 3 15 7 4 .289 .359 .401 .760 56   7.2 4.4 11.6 .071 .044 .115 12.07 1927 4 3 Buddy Myer
1927 14 Jack Rothrock T22   R   BOS 8 B 22 2B,3B   40 100 123 11 28 .953   1927 14 Jack Rothrock 157 41 9 3 0 22 13 9 17 1 3 2 2 .261 .305 .357 .662 16   1.3 1.9 3.2 .033 .048 .080 2.79 1927 14 Jack Rothrock
         
1928 8 8 Wally Gerber     BOS 8 R 36   103 201 328 25 50 .955   1928 8 8 Wally Gerber 300 64 6 1 0 21 28 32 31 0 12 6 1 .213 .289 .240 .529 21   0.2 4.7 4.9 .002 .046 .048 3.26 1928 8 8 Wally Gerber
1928 13 Billy Rogell     BOS 8 B 23 2B   67 101 159 18 26 .935   1928 13 Billy Rogell 202 47 7 3 0 23 20 15 32 3 12 1 4 .233 .295 .297 .592 16   0.1 2.1 2.2 .001 .031 .033 1.21 1928 13 Billy Rogell
         
1929 8 6 Hal Rhyne     BOS 8 R 30   114 220 297 36 71 .935   1929 8 6 Hal Rhyne 340 86 24 5 0 40 37 25 14 4 12 4 1 .253 .312 .353 .665 37   3.0 4.1 7.1 .026 .036 .062 5.46 1929 8 6 Hal Rhyne
1929 11 Bill Narleski   R   BOS 8 R 30 2B   51 78 121 9 25 .957   1929 11 Bill Narleski 149 41 9 1 0 17 14 12 13 1 5 2 2 .275 .333 .349 .682 17   1.6 1.5 3.1 .031 .029 .061 2.36 1929 11 Bill Narleski
1929 15 Wally Gerber     BOS 8 R 37 2B   30 35 39 5 3 .937   1929 15 Wally Gerber 53 9 2 1 0 3 3 5 7 0 3 1 0 .170 .241 .245 .486 2   - 0.7 0.7 .000 .023 .023 0.33 1929 15 Wally Gerber
         
1930 9 7 Hal Rhyne     BOS 8 R 31   107 188 284 28 63 .944   1930 9 7 Hal Rhyne 296 60 8 5 0 34 23 25 19 2 12 1 4 .203 .269 .264 .533 20   - 4.1 4.1 .000 .038 .038 2.29 1930 9 7 Hal Rhyne
1930 13 Rabbit Warstler   R   BOS 8 R 26   54 100 149 14 30 .947   1930 13 Rabbit Warstler 162 30 2 3 1 16 13 20 21 0 5 0 2 .185 .275 .253 .528 11   - 2.1 2.1 .000 .039 .039 1.19 1930 13 Rabbit Warstler
         
1931 3 3 Hal Rhyne 14     BOS 6 R 32   147 295 502 31 74 .963   1931 3 3 Hal Rhyne 565 154 34 3 0 75 51 57 41 2 5 3 3 .273 .341 .343 .684 72   8.0 5.6 13.6 .054 .038 .093 11.51 1931 3 3 Hal Rhyne
         
1932 10 8 Rabbit Warstler     BOS 8 R 28   107 254 373 41 84 .939   1932 10 8 Rabbit Warstler 388 82 15 5 0 26 34 22 43 3 9 9 6 .211 .259 .276 .535 24   - 5.4 5.4 .000 .050 .050 3.44 1932 10 8 Rabbit Warstler
1932 11 Hal Rhyne     BOS 8 R 33   55 92 161 9 31 .966   1932 11 Hal Rhyne 190 43 11 5 0 24 13 21 13 2 1 3 2 .226 .310 .337 .647 19   0.9 2.4 3.3 .016 .044 .060 2.29 1932 11 Hal Rhyne
         
1933 10 7 Rabbit Warstler   BOS 7 R 29   87 150 275 22 40 .951   1933 10 7 Rabbit Warstler 322 70 13 1 1 44 17 42 36 0 6 2 4 .217 .308 .273 .581 29   0.8 2.7 3.5 .009 .031 .040 1.90 1933 10 7 Rabbit Warstler
1933 6 Bill Werber R   BOS 7 R 25 3B   71 128 194 32 36 .910   1933 6 Bill Werber 272 70 19 4 2 41 25 21 25 0 8 10 3 .257 .311 .379 .690 34   3.3 2.0 5.3 .046 .028 .075 3.91 1933 6 Bill Werber
       
1934 7 7 Lyn Lary   BOS 4 R 28   129 260 396 24 66 .965   1934 7 7 Lyn Lary 419 101 20 4 2 58 54 66 51 0 15 12 5 .241 .344 .322 .666 57   4.8 4.2 9.0 .037 .033 .070 6.93 1934 7 7 Lyn Lary
1934 8 Bill Werber T12   BOS 4 R 26 3B   22 43 69 14 14 .889   1934 8 Bill Werber 105 34 7 2 2 22 11 13 6 0 3 7 3 .324 .398 .486 .884 22   3.2 1.4 4.6 .145 .064 .209 6.13 1934 8 Bill Werber
       
Pos St All- Other Shortstop Fielding Statistics Pos St Batting Statistics as Shortstop Win Shares Pos St
Year Rank Rank Name HOF MVP Star Rookie GG SS Team Stdg Bats Age Pos Games PO Assts Err DP F Pct. Year Rank Rank Name At Bats Hits 2B 3B HR Runs RBI BB IBB SO HP SH SF SB CS GDP BA OBA SA OPS RC B WS F WS T WS BWS/G FWS/G TWS/G Adj WSQ Year Rank Rank Name
1935 3 3 Joe Cronin BBW A   BOS 4 R 28   139 264 431 37 86 .949   1935 3 3 Joe Cronin 556 164 37 14 9 70 95 63 40 3 8 3 3 .295 .370 .460 .830 90   12.5 3.1 15.6 .090 .022 .112 14.94 1935 3 3 Joe Cronin
       
1936 8 7 Eric McNair T19   BOS 6 R 27 2B   84 171 230 14 47 .966   1936 8 7 Eric McNair 319 91 23 1 3 44 48 17 22 3 6 2 2 .285 .327 .392 .719 41   2.9 4.3 7.2 .035 .051 .086 5.86 1936 8 7 Eric McNair
1936 9 Joe Cronin BBW   BOS 6 R 29 3B   60 115 191 23 34 .930   1936 9 Joe Cronin 219 61 16 3 1 27 32 24 16 1 4 1 2 .279 .352 .393 .745 31   2.7 2.9 5.6 .045 .048 .093 4.76 1936 9 Joe Cronin
       
1937 2 2 Joe Cronin BBW 7 A   BOS 5 R 30   148 300 414 31 89 .958   1937 2 2 Joe Cronin 570 175 40 4 18 102 110 84 73 6 11 5 3 .307 .402 .486 .888 114   18.0 6.3 24.3 .122 .043 .164 26.43 1937 2 2 Joe Cronin
       
1938 1 1 Joe Cronin BBW 7 A   BOS 2 R 31   142 304 449 36 110 .954   1938 1 1 Joe Cronin 530 172 51 5 17 98 94 91 60 5 11 7 5 .325 .428 .536 .964 122   20.4 9.1 29.5 .144 .064 .208 36.54 1938 1 1 Joe Cronin
       
1939 2 2 Joe Cronin BBW 16 A   BOS 2 R 32   142 306 437 32 93 .959   1939 2 2 Joe Cronin 520 160 33 3 19 97 107 87 48 0 20 6 6 18 .308 .407 .492 .899 108   17.3 5.1 22.4 .122 .036 .158 26.43 1939 2 2 Joe Cronin
       
1940 3 3 Joe Cronin BBW   BOS T4 R 33   146 252 443 38 89 .948   1940 3 3 Joe Cronin 541 154 35 6 24 103 110 82 64 1 13 7 5 6 .285 .380 .505 .885 105   17.6 5.7 23.3 .121 .039 .160 25.21 1940 3 3 Joe Cronin
1940 11 Tom Carey   BOS T4 R 33   20 21 40 3 12 .953   1940 11 Tom Carey 44 14 3 0 0 3 5 1 1 0 1 0 0 1 .318 .333 .386 .719 6   0.7 0.5 1.2 .035 .025 .060 0.80 1940 11 Tom Carey
       
1941 5 5 Joe Cronin BBW 11 A   BOS 2 R 34 3B   119 225 324 24 64 .958   1941 5 5 Joe Cronin 434 135 32 7 13 82 80 69 46 1 12 1 3 17 .311 .407 .507 .914 86   15.3 4.3 19.6 .129 .036 .165 20.50 1941 5 5 Joe Cronin
1941 10 Skeeter Newsome 9   BOS 2 R 30 2B   69 95 133 10 28 .958   1941 10 Skeeter Newsome 170 38 5 0 2 21 13 17 8 1 10 8 3 4 .224 .298 .288 .586 15   0.3 2.0 2.3 .004 .029 .033 1.08 1941 10 Skeeter Newsome
       
1942 1 1 Johnny Pesky 3 R   BOS 2 L 22   147 320 465 37 94 .955   1942 1 1 Johnny Pesky 620 205 29 9 2 105 51 42 36 2 22 12 7 8 .331 .375 .416 .791 97   18.8 9.3 28.1 .128 .063 .191 32.88 1942 1 1 Johnny Pesky
       
1943 4 4 Skeeter Newsome T25   BOS 7 R 32   98 222 310 21 69 .962   1943 4 4 Skeeter Newsome 389 103 18 2 1 42 19 18 18 2 7 4 5 9 .265 .301 .329 .630 36   4.3 5.8 10.1 .044 .059 .103 8.18 1943 4 4 Skeeter Newsome
1943 10 Eddie Lake   BOS 7 R 27   63 128 195 13 43 .961   1943 10 Eddie Lake 216 43 10 0 3 26 16 47 35 1 5 3 6 4 .199 .345 .287 .632 24   3.2 3.4 6.6 .051 .054 .105 5.39 1943 10 Eddie Lake
       
1944 5 5 Skeeter Newsome   BOS 4 R 33   126 249 421 26 79 .963   1944 5 5 Skeeter Newsome 441 106 24 3 0 38 38 31 20 0 18 4 3 10 .240 .290 .308 .598 40   3.5 5.1 8.6 .028 .040 .068 6.16 1944 5 5 Skeeter Newsome
1944 12 Eddie Lake   BOS 4 R 28   41 53 100 12 28 .927   1944 12 Eddie Lake 101 21 4 0 0 17 6 18 18 0 3 4 2 1 .208 .328 .248 .576 10   1.1 1.1 2.2 .027 .027 .054 1.40 1944 12 Eddie Lake
       
1945 1 1 Eddie Lake 31   BOS 7 R 29   130 265 459 40 112 .948   1945 1 1 Eddie Lake 469 131 27 1 11 80 51 105 37 1 6 9 7 9 .279 .412 .412 .824 82   20.8 6.3 27.1 .160 .048 .208 34.02 1945 1 1 Eddie Lake
1945 10 Skeeter Newsome T32   BOS 7 R 34 2B   33 61 114 4 21 .978   1945 10 Skeeter Newsome 115 33 8 0 0 12 13 5 4 0 4 2 1 3 .287 .317 .357 .674 13   2.2 1.2 3.4 .067 .036 .103 3.00 1945 10 Skeeter Newsome
       
1946 1 1 Johnny Pesky 4 A   BOS 1 L 26   153 296 479 25 96 .969   1946 1 1 Johnny Pesky 621 208 43 4 2 115 55 65 29 3 14 9 8 8 .335 .401 .427 .828 108   24.0 10.3 34.3 .157 .067 .224 41.56 1946 1 1 Johnny Pesky
       
1947 5 5 Johnny Pesky 18   BOS 3 L 27 3B   133 251 391 16 90 .976   1947 5 5 Johnny Pesky 547 178 23 7 0 91 33 62 19 0 8 10 8 9 .325 .394 .393 .787 86   16.3 5.5 21.8 .123 .041 .164 23.11 1947 5 5 Johnny Pesky
1947 11 Eddie Pellagrini R   BOS 3 R 29 3B   26 39 76 6 10 .950   1947 11 Eddie Pellagrini 88 18 3 0 2 11 7 9 13 1 3 1 1 1 .205 .286 .307 .593 7   0.3 0.9 1.2 .012 .035 .046 0.67 1947 11 Eddie Pellagrini
       
1948 3 3 Vern Stephens 4 a   BOS 2 R 27   155 269 540 24 113 .971   1948 3 3 Vern Stephens 635 171 25 8 29 114 137 77 56 2 2 1 0 25 .269 .350 .471 .821 107   17.2 8.1 25.3 .111 .052 .163 26.15 1948 3 3 Vern Stephens
       
1949 2 2 Vern Stephens 7 a   BOS 2 R 28   155 257 508 27 128 .966   1949 2 2 Vern Stephens 610 177 31 2 39 113 159 101 73 0 0 2 2 19 .290 .391 .539 .930 128   22.4 9.2 31.6 .145 .059 .204 36.33 1949 2 2 Vern Stephens
       
1950 2 2 Vern Stephens T24 a   BOS 3 R 29   146 258 431 13 115 .981   1950 2 2 Vern Stephens 628 185 34 6 30 125 144 65 43 0 0 1 0 21 .295 .361 .511 .872 116   16.5 5.7 22.2 .113 .039 .152 23.33 1950 2 2 Vern Stephens
       
1951 3 3 Johnny Pesky T24   BOS 3 L 31   106 204 340 22 74 .961   1951 3 3 Johnny Pesky 417 130 17 5 3 81 36 73 13 2 6 2 2 9 .312 .417 .398 .815 77   13.4 4.7 18.1 .126 .044 .171 21.25 1951 3 3 Johnny Pesky
1951 7 Lou Boudreau BBW   BOS 3 R 33   52 80 153 12 45 .951   1951 7 Lou Boudreau 206 55 14 1 4 28 35 23 9 5 3 1 0 8 .267 .355 .403 .758 30   4.1 2.1 6.2 .079 .040 .119 6.08 1951 7 Lou Boudreau
       
1952 8 7 Johnny Lipon   BOS 6 R 29   69 118 218 6 53 .982   1952 8 7 Johnny Lipon 211 43 7 1 0 22 16 29 18 0 11 1 1 4 .204 .300 .246 .546 17   0.6 2.7 3.3 .009 .039 .048 2.11 1952 8 7 Johnny Lipon
1952 7 Vern Stephens   BOS 6 R 31 3B   53 89 154 11 40 .957   1952 7 Vern Stephens 101 26 4 1 2 12 15 13 11 0 1 1 1 3 .257 .342 .376 .718 14   2.1 2.1 4.2 .040 .040 .079 3.47 1952 7 Vern Stephens
1952 10 Jimmy Piersall R   BOS 6 R 22 RF   30 41 75 9 13 .928   1952 10 Jimmy Piersall 91 24 5 0 1 16 9 16 15 1 2 2 2 1 .264 .380 .352 .732 13   2.0 1.2 3.2 .067 .040 .107 3.07 1952 10 Jimmy Piersall
       
Pos St All- Other Shortstop Fielding Statistics Pos St Batting Statistics as Shortstop Win Shares Pos St
Year Rank Rank Name HOF MVP Star Rookie GG SS Team Stdg Bats Age Pos Games PO Assts Err DP F Pct. Year Rank Rank Name At Bats Hits 2B 3B HR Runs RBI BB IBB SO HP SH SF SB CS GDP BA OBA SA OPS RC B WS F WS T WS BWS/G FWS/G TWS/G Adj WSQ Year Rank Rank Name
1953 8 7 Milt Bolling R   BOS 4 R 22   109 174 321 23 71 .956   1953 8 7 Milt Bolling 323 85 12 1 5 30 28 23 41 3 13 1 4 4 .263 .318 .353 .671 36   3.3 5.8 9.1 .030 .053 .083 7.84 1953 8 7 Milt Bolling
1953 11 Johnny Lipon   BOS 4 R 30   58 85 150 12 26 .951   1953 11 Johnny Lipon 145 31 7 0 0 18 13 14 16 0 7 1 0 5 .214 .283 .262 .545 10   - 2.5 2.5 .000 .043 .043 1.55 1953 11 Johnny Lipon
1953 12 Ted Lepcio   BOS 4 R 22 2B   20 15 52 1 10 .985   1953 12 Ted Lepcio 50 12 1 1 1 5 3 5 7 0 1 0 0 2 .240 .309 .360 .669 5   0.5 0.9 1.4 .025 .045 .070 1.10 1953 12 Ted Lepcio
       
1954 5 5 Milt Bolling   BOS 4 R 23   107 186 370 32 73 .946   1954 5 5 Milt Bolling 363 91 20 3 6 42 36 46 2 54 4 13 3 2 4 3 .251 .339 .372 .711 46   5.9 3.7 9.6 .055 .035 .090 9.17 1954 5 5 Milt Bolling
1954 13 Billy Consolo R     BOS 4 R 19   50 79 123 10 24 .953   1954 13 Billy Consolo 151 37 6 1 1 15 7 19 2 44 2 1 1 0 1 3 .245 .335 .318 .653 17   1.2 1.4 2.6 .024 .028 .052 1.89 1954 13 Billy Consolo
         
1955 2 2 Billy Klaus 13 R-2   BOS 4 L 26   126 207 391 28 55 .955   1955 2 2 Billy Klaus 516 147 24 2 7 80 55 52 0 41 0 4 5 6 1 5 .285 .347 .380 .727 73   9.1 5.7 14.8 .072 .045 .117 16.78 1955 2 2 Billy Klaus
1955 13 Eddie Joost   BOS 4 R 39   20 37 72 8 19 .932   1955 13 Eddie Joost 70 11 1 0 3 8 5 11 0 13 1 1 0 0 0 1 .157 .280 .300 .580 7   0.4 0.7 1.1 .020 .035 .055 0.86 1955 13 Eddie Joost
       
1956 5 5 Don Buddin R   BOS 4 R 22   113 213 370 29 98 .953   1956 5 5 Don Buddin 376 90 24 0 5 49 37 65 1 61 4 2 6 2 0 14 .239 .353 .343 .696 46   4.8 4.1 8.9 .042 .036 .079 7.55 1956 5 5 Don Buddin
1956 6 Billy Klaus   BOS 4 L 27 3B   26 35 64 6 8 .943   1956 6 Billy Klaus 101 27 7 2 1 18 11 16 0 8 0 3 0 1 0 1 .267 .368 .406 .774 17   2.6 1.2 3.8 .100 .046 .146 4.39 1956 6 Billy Klaus
1956 14 Milt Bolling   BOS 4 R 25   26 31 59 5 11 .947   1956 14 Milt Bolling 76 15 3 1 2 9 2 10 1 12 1 2 0 0 0 3 .197 .299 .342 .641 8   0.7 0.6 1.3 .027 .023 .050 0.88 1956 14 Milt Bolling
       
1957 5 5 Billy Klaus   BOS 3 L 28   118 204 417 25 93 .961   1957 5 5 Billy Klaus 469 118 18 4 10 74 42 54 0 51 0 1 4 2 0 12 .252 .326 .371 .697 58   7.4 5.2 12.6 .063 .044 .107 12.72 1957 5 5 Billy Klaus
1957 10 Billy Consolo   BOS 3 R 22   42 61 149 15 30 .933   1957 10 Billy Consolo 142 34 4 0 2 17 13 17 0 34 0 1 1 0 3 3 .239 .319 .310 .629 14   1.9 1.5 3.4 .045 .036 .081 2.99 1957 10 Billy Consolo
       
1958 2 2 Don Buddin   BOS 3 R 24   136 269 445 31 102 .958   1958 2 2 Don Buddin 497 118 25 2 12 74 43 82 1 106 4 9 2 0 4 13 .237 .349 .368 .717 65   9.3 5.0 14.3 .068 .037 .105 16.27 1958 2 2 Don Buddin
1958 16 Billy Klaus   BOS 3 L 29   27 18 35 7 2 .883   1958 16 Billy Klaus 49 8 2 0 1 4 2 0 0 6 0 0 0 0 0 1 .163 .163 .265 .428 2   - 0.2 0.2 .000 .007 .007 0.06 1958 16 Billy Klaus
       
1959 3 3 Don Buddin   BOS 5 R 25   150 235 412 35 89 .949   1959 3 3 Don Buddin 481 115 24 1 9 73 51 91 0 98 5 5 2 5 2 7 .239 .364 .349 .713 69   10.8 4.2 15.0 .072 .028 .100 15.61 1959 3 3 Don Buddin
1959 19 Jim Mahoney R   BOS 5 R 25   30 24 39 4 5 .940   1959 19 Jim Mahoney 23 3 0 0 1 10 4 3 0 7 0 0 0 0 0 0 .130 .231 .261 .492 1   - 0.4 0.4 .000 .013 .013 0.15 1959 19 Jim Mahoney
       
1960 6 6 Don Buddin   BOS 7 R 26   124 230 356 30 79 .951   1960 6 6 Don Buddin 428 105 21 5 6 62 36 62 5 59 1 3 6 4 2 14 .245 .338 .360 .698 53   4.7 2.8 7.5 .038 .023 .060 5.44 1960 6 6 Don Buddin
1960 9 Pumpsie Green   BOS 7 B 26 2B   41 68 86 8 16 .951   1960 9 Pumpsie Green 132 33 3 2 1 14 9 20 1 23 0 0 3 3 0 4 .250 .342 .326 .668 16   1.9 0.7 2.6 .046 .017 .063 1.93 1960 9 Pumpsie Green
       
1961 4 4 Don Buddin   BOS 6 R 27   109 204 294 23 70 .956   1961 4 4 Don Buddin 335 88 22 3 6 58 42 72 7 45 2 6 1 2 1 7 .263 .395 .400 .795 58   10.8 4.2 15.0 .099 .039 .138 16.64 1961 4 4 Don Buddin
1961 8 Pumpsie Green   BOS 6 B 27   57 84 166 16 35 .940   1961 8 Pumpsie Green 176 47 9 1 5 26 19 37 3 26 0 1 2 3 2 4 .267 .391 .415 .806 31   5.6 2.0 7.6 .098 .035 .133 8.30 1961 8 Pumpsie Green
       
1962 1 1 Eddie Bressoud T26   BOS 8 R 30   153 291 482 28 107 .965   1962 1 1 Eddie Bressoud 599 166 40 9 14 79 68 46 4 118 2 7 3 2 3 15 .277 .329 .444 .773 83   12.5 9.0 21.5 .082 .059 .141 24.05 1962 1 1 Eddie Bressoud
       
1963 7 7 Eddie Bressoud   BOS 7 R 31   137 260 351 24 76 .962   1963 7 7 Eddie Bressoud 495 129 23 6 20 61 60 52 2 92 2 2 5 1 1 9 .261 .330 .453 .783 71   12.8 4.1 16.9 .093 .030 .123 16.98 1963 7 7 Eddie Bressoud
1963 10 Felix Mantilla   BOS 7 R 28   27 49 62 4 16 .965   1963 10 Felix Mantilla 102 35 6 0 3 17 9 8 0 8 0 0 0 1 0 2 .343 .391 .490 .881 20   3.9 0.9 4.8 .144 .033 .178 5.79 1963 10 Felix Mantilla
       
1964 3 3 Eddie Bressoud T30 a   BOS 8 R 32   158 248 411 19 78 .972   1964 3 3 Eddie Bressoud 566 166 41 3 15 86 55 72 4 99 1 2 3 1 1 9 .293 .372 .456 .828 92   19.8 5.1 24.9 .125 .032 .158 26.33 1964 3 3 Eddie Bressoud
       
1965 9 8 Rico Petrocelli R   BOS 9 R 22   93 151 278 19 45 .958   1965 9 8 Rico Petrocelli 315 75 15 2 13 38 33 34 4 68 1 1 2 0 2 6 .238 .313 .422 .735 38   5.0 3.4 8.4 .054 .037 .090 7.19 1965 9 8 Rico Petrocelli
1965 11 Eddie Bressoud   BOS 9 R 33   86 147 195 13 45 .963   1965 11 Eddie Bressoud 270 59 11 1 6 23 20 24 3 68 1 0 1 0 1 4 .219 .284 .333 .617 26   2.6 2.6 5.2 .030 .030 .060 3.64 1965 11 Eddie Bressoud
       
1966 5 5 Rico Petrocelli   BOS 9 R 23   127 206 381 28 69 .954   1966 5 5 Rico Petrocelli 490 118 18 1 18 56 59 41 2 93 3 2 4 0 1 8 .241 .301 .392 .693 58   8.2 5.9 14.1 .065 .046 .111 13.36 1966 5 5 Rico Petrocelli
1966 19 Eddie Kasko   BOS 9 R 34   20 29 53 2 7 .976   1966 19 Eddie Kasko 55 12 3 0 0 4 2 7 0 7 0 0 0 1 0 4 .218 .306 .273 .579 4   0.2 0.9 1.1 .010 .045 .055 0.74 1966 19 Eddie Kasko
       
1967 2 2 Rico Petrocelli T17 A   BOS 1 R 24   141 223 432 19 73 .972   1967 2 2 Rico Petrocelli 490 127 24 2 17 53 66 49 9 93 5 8 3 2 4 4 .259 .331 .420 .751 70   13.3 9.2 22.5 .094 .065 .160 27.54 1967 2 2 Rico Petrocelli
1967 13 Jerry Adair 15   BOS 1 R 30 2B,3B   30 38 68 0 12 1.000   1967 13 Jerry Adair 97 25 2 1 2 13 8 4 0 16 0 2 0 0 1 6 .258 .287 .361 .648 8   1.2 1.2 2.4 .040 .040 .080 2.08 1967 13 Jerry Adair
       
Pos St All- Other Shortstop Fielding Statistics Pos St Batting Statistics as Shortstop Win Shares Pos St
Year Rank Rank Name HOF MVP Star Rookie GG SS Team Stdg Bats Age Pos Games PO Assts Err DP F Pct. Year Rank Rank Name At Bats Hits 2B 3B HR Runs RBI BB IBB SO HP SH SF SB CS GDP BA OBA SA OPS RC B WS F WS T WS BWS/G FWS/G TWS/G Adj WSQ Year Rank Rank Name
1968 5 5 Rico Petrocelli   BOS 4 R 25   117 169 360 12 66 .978   1968 5 5 Rico Petrocelli 398 94 17 2 12 40 45 30 2 73 4 6 4 0 1 7 .236 .294 .379 .673 45   8.6 6.2 14.8 .074 .053 .126 15.80 1968 5 5 Rico Petrocelli
1968 17 Jerry Adair   BOS 4 R 31 2B,3B   46 62 104 4 15 .976   1968 17 Jerry Adair 135 30 1 0 2 13 10 7 2 22 1 5 0 0 0 5 .222 .266 .274 .540 9   - 1.6 1.6 .000 .035 .035 0.90 1968 17 Jerry Adair
       
1969 1 1 Rico Petrocelli 7 A   BOS 3E R 26   153 269 466 14 103 .981   1969 1 1 Rico Petrocelli 531 159 32 2 40 93 96 98 13 67 1 3 6 3 6 12 .299 .406 .593 .999 118   27.9 9.1 37.0 .182 .059 .242 49.98 1969 1 1 Rico Petrocelli
       
1970 3 3 Rico Petrocelli   BOS 3E R 27   141 262 393 20 77 .970   1970 3 3 Rico Petrocelli 514 136 26 2 27 76 91 63 6 74 2 1 9 1 1 12 .265 .342 .481 .823 86   14.6 6.8 21.4 .104 .048 .152 24.10 1970 3 3 Rico Petrocelli
1970 22 Luis Alvarado R   BOS 3E R 21 3B   27 25 75 2 15 .980   1970 22 Luis Alvarado 79 14 2 0 1 9 4 5 1 17 0 0 1 1 1 3 .177 .224 .241 .465 4   - 1.0 1.0 .000 .037 .037 0.56 1970 22 Luis Alvarado
       
1971 8 8 Luis Aparacio BBW A   BOS 3E R 37   121 194 338 16 56 .971   1971 8 8 Luis Aparacio 489 113 23 0 4 56 44 35 0 43 2 9 4 6 4 7 .231 .283 .303 .586 43   4.0 4.0 8.0 .033 .033 .066 6.53 1971 8 8 Luis Aparacio
1971 12 John Kennedy   BOS 3E R 30 2B   33 41 74 9 18 .927   1971 12 John Kennedy 118 32 5 3 0 15 9 7 0 18 3 1 0 0 1 2 .271 .328 .364 .692 14   2.7 1.1 3.8 .082 .033 .115 4.09 1971 12 John Kennedy
       
1972 6 5 Luis Aparacio BBW 18 A-INJ   BOS 2E R 38   109 183 304 16 54 .968   1972 6 5 Luis Aparacio 435 112 26 3 3 47 39 26 0 28 2 5 5 3 3 8 .257 .299 .352 .651 45   8.4 2.9 11.3 .077 .027 .104 11.87 1972 6 5 Luis Aparacio
1972 14 Juan Beniquez R   BOS 2E R 22   27 38 88 14 19 .900   1972 14 Juan Beniquez 96 23 4 1 1 9 8 7 0 10 0 0 2 2 0 2 .240 .286 .333 .619 10   1.8 0.6 2.4 .067 .022 .089 2.33 1972 14 Juan Beniquez
1972 13 John Kennedy   BOS 2E R 31 2B   27 44 65 5 13 .956   1972 13 John Kennedy 87 24 3 1 1 9 7 11 2 13 0 0 0 0 1 1 .276 .357 .368 .725 12   2.2 0.6 2.8 .081 .022 .104 2.94 1972 13 John Kennedy
       
1973 3 3 Luis Aparacio BBW   BOS 2E R 39   132 190 404 21 68 .966   1973 3 3 Luis Aparacio 499 135 17 1 0 56 49 43 1 33 0 12 7 13 1 12 .271 .324 .309 .633 53   6.0 7.0 13.0 .045 .053 .098 14.43 1973 3 3 Luis Aparacio
1973 17 Mario Guerrero R   BOS 2E R 23 2B   46 59 129 5 30 .974   1973 17 Mario Guerrero 146 31 4 1 0 14 8 9 0 16 0 0 1 2 1 2 .212 .256 .253 .509 10   - 2.2 2.2 .000 .048 .048 1.70 1973 17 Mario Guerrero
       
1974 12 11 Mario Guerrero   BOS 3E R 24   93 136 266 13 50 .969   1974 12 11 Mario Guerrero 283 69 6 2 0 18 23 13 0 22 2 3 2 3 1 12 .244 .280 .279 .559 19   - 4.7 4.7 .000 .051 .051 3.49 1974 12 11 Mario Guerrero
1974 8 Rick Burleson R-4   BOS 3E R 23 2B   88 142 249 18 41 .956   1974 8 Rick Burleson 280 76 15 0 2 19 30 12 0 25 1 3 4 1 2 10 .271 .300 .346 .646 27   3.7 4.1 7.8 .042 .047 .089 7.67 1974 8 Rick Burleson
       
1975 5 5 Rick Burleson 13   BOS 1E R 24   158 267 498 29 102 .963   1975 5 5 Rick Burleson 580 146 25 1 6 66 62 45 1 44 3 17 9 8 5 18 .252 .305 .329 .634 58   5.1 9.2 14.3 .032 .058 .091 14.18 1975 5 5 Rick Burleson
       
1976 3 3 Rick Burleson   BOS 3E R 25   152 274 478 34 88 .957   1976 3 3 Rick Burleson 540 157 27 1 7 75 42 60 2 37 5 8 3 14 9 15 .291 .365 .383 .748 76   13.0 7.2 20.2 .086 .047 .133 22.97 1976 3 3 Rick Burleson
       
1977 1 1 Rick Burleson 22 A   BOS T2E R 26   154 285 482 24 111 .970   1977 1 1 Rick Burleson 663 194 36 7 3 80 52 47 1 69 2 3 6 13 12 15 .293 .338 .382 .720 82   9.7 11.1 20.8 .063 .072 .135 26.07 1977 1 1 Rick Burleson
       
1978 4 4 Rick Burleson T36 a-inj   BOS 2E R 27   144 285 482 15 100 .981   1978 4 4 Rick Burleson 626 155 32 5 5 75 49 40 2 71 4 9 5 8 8 16 .248 .295 .339 .634 59   4.8 11.4 16.2 .033 .079 .113 17.94 1978 4 4 Rick Burleson
1978 25 Frank Duffy   BOS 2E R 31 3B   21 36 55 7 13 .929   1978 25 Frank Duffy 59 11 3 0 0 3 2 4 0 7 0 2 0 0 0 0 .186 .238 .237 .475 4   0.3 0.8 1.1 .014 .038 .052 0.83 1978 25 Frank Duffy
       
1979 2 2 Rick Burleson 21 a G   BOS 3E R 28   153 272 523 16 109 .980   1979 2 2 Rick Burleson 626 174 32 5 5 93 60 35 0 54 3 9 8 9 5 13 .278 .315 .369 .684 72   7.0 11.8 18.8 .046 .077 .123 22.49 1979 2 2 Rick Burleson
1979 22 Stan Papi   BOS 3E R 28 2B   21 24 46 1 8 .986   1979 22 Stan Papi 47 9 5 0 0 2 2 0 0 10 0 3 0 0 0 0 .191 .191 .298 .489 3   - 1.0 1.0 .000 .048 .048 0.74 1979 22 Stan Papi
       
1980 5 5 Rick Burleson BOS 4E R 29   155 301 528 22 147 .974   1980 5 5 Rick Burleson 644 179 29 2 8 89 51 62 0 51 2 6 4 12 13 24 .278 .341 .366 .707 71   8.1 9.5 17.6 .052 .061 .114 18.73 1980 5 5 Rick Burleson
     
1981 13 9 Glenn Hoffman BOS 5E R 22   78 131 233 15 52 .960   1981 13 9 Glenn Hoffman 240 55 10 0 1 28 20 12 0 24 1 6 0 0 1 7 .229 .269 .283 .552 16   - 3.3 3.3 .000 .042 .042 2.05 1981 13 9 Glenn Hoffman
1981 8 Dave Stapleton BOS 5E R 27 2B,3B   33 52 93 8 18 .948   1981 8 Dave Stapleton 129 40 8 0 4 18 19 5 1 6 0 1 1 0 2 2 .310 .333 .465 .798 19   3.2 1.2 4.4 .097 .036 .133 4.84 1981 8 Dave Stapleton
     
1982 8 8 Glenn Hoffman BOS 3E R 23   150 246 439 20 93 .972   1982 8 8 Glenn Hoffman 469 98 23 2 7 53 49 30 5 69 5 5 4 0 4 15 .209 .262 .311 .573 33   - 8.9 8.9 .000 .059 .059 6.55 1982 8 8 Glenn Hoffman
1982 17 Dave Stapleton BOS 3E R 28 1B   27 35 73 3 14 .973   1982 17 Dave Stapleton 85 25 5 0 4 14 14 9 0 9 0 2 0 1 1 5 .294 .362 .494 .856 13   1.3 1.6 2.9 .048 .059 .107 2.87 1982 17 Dave Stapleton
1982 31 Julio Valdez R BOS 3E B 26   22 16 24 1 5 .976   1982 31 Julio Valdez 17 4 1 0 0 0 1 0 0 7 0 3 0 0 0 0 .235 .235 .294 .529 1   0.1 0.5 0.6 .005 .023 .027 0.30 1982 31 Julio Valdez
     
1983 7 7 Glenn Hoffman BOS 6E R 24   143 240 417 26 82 .962   1983 7 7 Glenn Hoffman 473 123 24 1 4 56 41 30 1 76 2 11 2 1 1 5 .260 .306 .340 .646 48   4.8 6.9 11.7 .034 .048 .082 9.55 1983 7 7 Glenn Hoffman
1983 21 Ed Jurak R BOS 6E R 25   38 32 67 6 13 .943   1983 21 Ed Jurak 64 17 3 3 0 6 7 6 1 9 0 0 1 0 0 2 .266 .324 .406 .730 8   1.1 1.2 2.3 .029 .032 .061 1.62 1983 21 Ed Jurak
     
Pos St All- Other Shortstop Fielding Statistics Pos St Batting Statistics as Shortstop Win Shares Pos St
Year Rank Rank Name HOF MVP Star Rookie GG SS Team Stdg Bats Age Pos Games PO Assts Err DP F Pct. Year Rank Rank Name At Bats Hits 2B 3B HR Runs RBI BB IBB SO HP SH SF SB CS GDP BA OBA SA OPS RC B WS F WS T WS BWS/G FWS/G TWS/G Adj WSQ Year Rank Rank Name
1984 29 14 Jackie Gutierrez R BOS 4E R 24   150 228 347 31 60 .949   1984 29 14 Jackie Gutierrez 449 118 12 3 2 55 29 15 0 49 0 12 4 12 5 18 .263 .284 .316 .600 35   0.2 - 0.2 .001 .000 .001 0.02 1984 29 14 Jackie Gutierrez
1984 30 Glenn Hoffman BOS 4E R 25   56 39 71 5 17 .957   1984 30 Glenn Hoffman 68 12 4 0 0 9 4 4 0 9 0 1 0 0 1 3 .176 .222 .235 .457 3   - 0.1 0.1 .000 .002 .002 0.02 1984 30 Glenn Hoffman
     
1985 21 14 Jackie Gutierrez BOS 5E R 25   99 143 238 23 47 .943   1985 21 14 Jackie Gutierrez 274 60 5 2 2 33 21 12 0 37 0 9 1 10 2 9 .219 .251 .274 .525 15   - 2.2 2.2 .000 .022 .022 1.07 1985 21 14 Jackie Gutierrez
1985 11 Glenn Hoffman BOS 5E R 26   93 155 231 10 61 .975   1985 11 Glenn Hoffman 273 76 17 2 6 41 34 23 0 39 4 9 3 2 2 4 .278 .340 .421 .761 38   5.2 2.4 7.6 .056 .026 .082 7.08 1985 11 Glenn Hoffman
     
1986 19 14 Ed Romero BOS 1E R 28   75 102 132 10 29 .959   1986 19 14 Ed Romero 176 39 10 0 2 26 21 13 0 13 2 6 3 2 0 4 .222 .278 .313 .591 16   0.1 1.7 1.8 .001 .023 .024 0.83 1986 19 14 Ed Romero
1986 15 Rey Quinones R BOS 1E R 22   62 86 150 15 26 .940   1986 15 Rey Quinones 190 45 12 1 2 25 15 19 0 26 2 2 1 3 2 7 .237 .311 .342 .653 18   1.4 1.8 3.2 .023 .029 .052 2.18 1986 15 Rey Quinones
1986 10 Spike Owen BOS 1E B 25   42 70 95 4 34 .976   1986 10 Spike Owen 126 23 2 1 1 21 10 17 0 19 1 2 1 3 1 2 .183 .283 .238 .521 9   0.5 1.9 2.4 .012 .045 .057 1.72 1986 10 Spike Owen
     
1987 12 12 Spike Owen BOS 5E B 26   130 176 336 13 69 .975   1987 12 12 Spike Owen 436 113 17 7 2 50 48 53 2 42 1 9 4 11 8 9 .259 .338 .344 .682 52   4.9 4.2 9.1 .038 .032 .070 7.12 1987 12 12 Spike Owen
1987 26 Ed Romero BOS 5E R 29 2B,3B   24 22 44 1 9 .985   1987 26 Ed Romero 48 12 0 0 0 2 1 8 0 6 0 0 1 0 1 0 .250 .351 .250 .601 5   0.2 0.8 1.0 .008 .033 .042 0.61 1987 26 Ed Romero
     
1988 9 9 Jody Reed R-3 BOS 1E R 25   94 123 242 11 49 .971   1988 9 9 Jody Reed 293 88 22 1 1 49 25 37 1 19 3 10 1 1 3 3 .300 .383 .392 .775 46   7.0 3.9 10.9 .074 .041 .116 11.18 1988 9 9 Jody Reed
1988 14 Spike Owen BOS 1E B 27   76 102 192 10 34 .967   1988 14 Spike Owen 250 63 14 1 5 38 16 26 0 26 2 6 1 0 1 7 .252 .326 .376 .702 23   1.4 2.8 4.2 .018 .037 .055 2.97 1988 14 Spike Owen
     
1989 17 13 Luis Rivera BOS 3E R 25   90 126 240 16 59 .958   1989 17 13 Luis Rivera 317 81 16 1 5 34 28 20 1 59 1 4 1 2 3 7 .256 .301 .360 .661 31   2.7 3.0 5.7 .030 .033 .063 4.69 1989 17 13 Luis Rivera
1989 7 Jody Reed BOS 3E R 26 2B   77 107 213 11 42 .967   1989 7 Jody Reed 269 80 23 1 1 34 20 31 0 27 1 9 2 0 4 8 .297 .370 .401 .771 39   6.0 3.5 9.5 .078 .045 .123 10.90 1989 7 Jody Reed
     
1990 14 13 Luis Rivera BOS 1E R 26   112 186 310 18 69 .965   1990 14 13 Luis Rivera 342 76 20 0 6 36 43 25 0 58 1 11 1 4 3 9 .222 .276 .333 .609 31   2.0 3.3 5.3 .018 .029 .047 3.67 1990 14 13 Luis Rivera
1990 7 Jody Reed 18 BOS 1E R 27 2B   50 63 104 10 21 .944   1990 7 Jody Reed 148 48 8 0 3 20 16 25 3 15 0 3 1 3 1 3 .324 .420 .439 .859 29   4.9 2.7 7.6 .098 .054 .152 9.43 1990 7 Jody Reed
     
1991 10 9 Luis Rivera BOS T2E R 27   129 180 386 24 87 .959   1991 10 9 Luis Rivera 414 107 22 3 8 64 40 35 0 86 3 12 4 4 4 10 .258 .318 .384 .702 41   3.3 5.4 8.7 .026 .042 .067 7.28 1991 10 9 Luis Rivera
1991 30 Mike Brumley BOS T2E B 28   31 19 76 5 9 .950   1991 30 Mike Brumley 66 12 2 0 0 10 4 6 0 16 0 2 0 1 0 0 .182 .250 .212 .462 4   - 1.1 1.1 .000 .035 .035 0.67 1991 30 Mike Brumley
     
1992 18 12 Luis Rivera BOS 7E R 28   93 117 286 14 56 .966   1992 18 12 Luis Rivera 279 61 11 0 0 16 27 26 0 52 3 5 0 4 3 5 .219 .292 .258 .550 22   1.1 4.1 5.2 .012 .044 .056 3.95 1992 18 12 Luis Rivera
1992 11 John Valentin R BOS 7E R 25   58 79 182 10 45 .963   1992 11 John Valentin 185 51 13 0 5 21 25 20 0 17 2 4 1 1 0 5 .276 .351 .427 .778 27   4.2 2.7 6.9 .072 .047 .119 7.65 1992 11 John Valentin
1992 24 Tim Naehring BOS 7E R 25 2B   30 36 86 1 19 .992   1992 24 Tim Naehring 83 17 1 0 1 6 4 5 0 14 2 2 0 0 0 0 .205 .267 .253 .520 6   0.8 1.6 2.4 .027 .053 .080 2.17 1992 24 Tim Naehring
     
1993 3 3 John Valentin BOS 5E R 26   144 238 432 20 96 .971   1993 3 3 John Valentin 467 130 40 3 11 51 66 48 2 77 2 16 4 3 4 9 .278 .345 .448 .793 69   8.6 7.9 16.5 .060 .055 .115 17.81 1993 3 3 John Valentin
1993 27 Luis Rivera BOS 5E R 29 2B   27 28 51 3 14 .963   1993 27 Luis Rivera 63 13 4 0 1 7 3 7 0 21 1 0 1 1 0 0 .206 .292 .317 .609 7   - 1.1 1.1 .000 .041 .041 0.71 1993 27 Luis Rivera
     
1994 2 2 John Valentin BOS 4E R 27   83 134 242 8 56 .979   1994 2 2 John Valentin 296 95 26 2 9 53 48 42 1 36 3 5 4 3 1 3 .321 .406 .514 .920 61   10.0 4.5 14.5 .120 .054 .175 19.48 1994 2 2 John Valentin
1994 16 Carlos Rodriguez R BOS 4E B 26 2B   32 45 65 3 17 .973   1994 16 Carlos Rodriguez 99 26 7 1 1 6 9 5 0 9 0 5 0 0 0 1 .263 .298 .384 .682 12   1.5 1.6 3.1 .047 .050 .097 3.10 1994 16 Carlos Rodriguez
     
1995 1 1 John Valentin 9 S BOS 1E R 28   135 227 414 18 95 .973   1995 1 1 John Valentin 520 155 37 2 27 108 102 81 2 67 10 4 6 20 5 7 .298 .399 .533 .932 117   22.5 6.1 28.6 .167 .045 .212 41.78 1995 1 1 John Valentin
     
1996 5 5 John Valentin BOS 3E R 29   118 194 347 16 87 .971   1996 5 5 John Valentin 478 144 28 2 11 74 53 58 0 55 6 2 6 9 9 11 .301 .380 .437 .817 80   9.9 6.5 16.4 .084 .055 .139 18.11 1996 5 5 John Valentin
1996 18 Nomar Garciaparra R BOS 3E R 22   22 35 50 1 11 .988   1996 18 Nomar Garciaparra 85 20 2 3 4 9 16 4 0 14 0 1 1 5 0 0 .235 .267 .471 .738 11   1.0 1.1 2.1 .045 .050 .095 1.92 1996 18 Nomar Garciaparra
1996 20 Tony Rodriguez R BOS 3E R 25   21 30 62 2 11 .979   1996 20 Tony Rodriguez 61 16 1 0 1 6 9 3 0 6 1 3 0 0 0 2 .262 .308 .328 .636 6   - 1.0 1.0 .000 .048 .048 0.65 1996 20 Tony Rodriguez
     
1997 1 1 Nomar Garciaparra 8 a R-1 S BOS 4E R 23   153 249 450 21 113 .971   1997 1 1 Nomar Garciaparra 684 209 44 11 30 122 98 35 2 92 6 2 7 22 9 9 .306 .342 .534 .876 117   19.4 6.8 26.2 .127 .044 .171 34.13 1997 1 1 Nomar Garciaparra
     
1998 3 3 Nomar Garciaparra 2 BOS 2E R 24   143 228 402 25 68 .962   1998 3 3 Nomar Garciaparra 604 195 37 8 35 111 122 33 1 62 8 0 7 12 6 20 .323 .362 .584 .946 120   20.9 5.0 25.9 .146 .035 .181 32.63 1998 3 3 Nomar Garciaparra
1998 21 Mike Benjamin BOS 2E R 32 2B   20 26 58 1 11 .988   1998 21 Mike Benjamin 64 20 6 0 0 6 6 0 0 13 2 3 0 0 0 0 .313 .333 .406 .739 9   0.7 0.9 1.6 .035 .045 .080 1.34 1998 21 Mike Benjamin
     
Pos St All- Other Shortstop Fielding Statistics Pos St Batting Statistics as Shortstop Win Shares Pos St
Year Rank Rank Name HOF MVP Star Rookie GG SS Team Stdg Bats Age Pos Games PO Assts Err DP F Pct. Year Rank Rank Name At Bats Hits 2B 3B HR Runs RBI BB IBB SO HP SH SF SB CS GDP BA OBA SA OPS RC B WS F WS T WS BWS/G FWS/G TWS/G Adj WSQ Year Rank Rank Name
1999 2 2 Nomar Garciaparra 7 A BOS 2E R 25   134 232 357 17 72 .972   1999 2 2 Nomar Garciaparra 531 190 42 4 27 103 104 51 7 38 8 0 4 14 3 11 .358 .419 .605 1.024 132   24.5 7.2 31.7 .183 .054 .237 41.03 1999 2 2 Nomar Garciaparra
1999 22 Lou Merloni R BOS 2E R 28   24 36 50 4 12 .956   1999 22 Lou Merloni 69 13 1 0 1 7 3 4 0 5 0 0 0 0 0 4 .188 .233 .246 .479 3   0.2 1.1 1.3 .008 .046 .054 0.80 1999 22 Lou Merloni
     
2000 2 2 Nomar Garciaparra 9 a BOS 2E R 26   136 201 402 18 65 .971   2000 2 2 Nomar Garciaparra 523 195 51 3 21 104 95 60 20 50 2 0 7 5 2 8 .373 .434 .602 1.036 138   22.8 6.6 29.4 .168 .049 .216 36.66 2000 2 2 Nomar Garciaparra
2000 23 Manny Alexander BOS 2E R 29 3B   20 16 33 0 7 1.000   2000 23 Manny Alexander 37 7 1 1 0 3 2 5 0 10 0 0 0 1 0 0 .189 .286 .270 .556 3   0.1 0.6 0.7 .005 .030 .035 0.35 2000 23 Manny Alexander
     
2001 20 13 Mike Lansing BOS 2E R 33 2B   76 109 172 10 37 .966   2001 20 13 Mike Lansing 256 68 17 0 6 36 20 18 1 35 1 2 1 1 3 4 .266 .315 .402 .717 32   1.5 3.2 4.7 .020 .042 .062 3.22 2001 20 13 Mike Lansing
2001 25 Lou Merloni BOS 2E R 30   45 54 100 2 19 .987   2001 25 Lou Merloni 133 36 10 0 2 19 11 6 0 28 3 2 1 2 1 5 .271 .315 .391 .706 15   - 1.7 1.7 .000 .038 .038 0.91 2001 25 Lou Merloni
2001 19 Nomar Garciaparra BOS 2E R 27   21 34 56 3 13 .968   2001 19 Nomar Garciaparra 83 24 3 0 4 13 8 7 0 9 1 0 0 0 1 1 .289 .352 .470 .822 13   2.4 1.0 3.4 .114 .048 .162 3.77 2001 19 Nomar Garciaparra
2001 29 Craig Grebeck BOS 2E R 36   23 16 32 0 4 1.000   2001 29 Craig Grebeck 41 2 1 0 0 1 2 2 0 9 0 0 0 0 0 0 .049 .093 .073 .166 0   - 0.5 0.5 .000 .022 .022 0.20 2001 29 Craig Grebeck
     
2002 3 3 Nomar Garciaparra T11 a BOS 2E R 28   154 218 467 25 92 .965   2002 3 3 Nomar Garciaparra 632 197 56 5 24 101 120 41 4 63 6 0 11 5 2 17 .312 .354 .530 .884 116   20.0 6.8 26.8 .130 .044 .174 30.27 2002 3 3 Nomar Garciaparra
     
2003 3 3 Nomar Garciaparra 7 a BOS 2E R 29   156 216 456 20 83 .971   2003 3 3 Nomar Garciaparra 658 198 37 13 28 120 104 39 1 61 11 1 9 18 5 10 .301 .346 .524 .870 117   19.3 5.9 25.2 .124 .038 .162 28.97 2003 3 3 Nomar Garciaparra
     
2004 21 14 Pokey Reese BOS 2E R 31 2B   71 85 189 6 37 .979   2004 21 14 Pokey Reese 189 45 6 2 2 23 21 11 1 41 0 6 1 5 1 4 .238 .279 .323 .602 17   - 2.4 2.4 .000 .034 .034 1.25 2004 21 14 Pokey Reese
2004 15 Orlando Cabrera BOS 2E R 29 NL-SS   57 78 147 8 23 .966   2004 15 Orlando Cabrera 228 67 19 1 6 33 31 11 0 23 1 1 7 4 1 4 .294 .320 .465 .785 34   3.4 1.6 5.0 .060 .028 .088 4.21 2004 15 Orlando Cabrera
2004 14 Nomar Garciaparra BOS 2E R 30 NL-SS   37 52 81 6 17 .957   2004 14 Nomar Garciaparra 151 46 6 3 4 21 18 7 2 16 4 0 1 2 0 4 .305 .350 .464 .814 24   3.5 0.9 4.4 .095 .024 .119 4.31 2004 14 Nomar Garciaparra
2004 26 Cesar Crespo BOS 2E B 25   27 20 30 3 8 .943   2004 26 Cesar Crespo 34 6 1 0 0 1 0 0 0 7 0 0 0 0 0 0 .176 .176 .206 .382 1   - 0.4 0.4 .000 .015 .015 0.14 2004 26 Cesar Crespo
     
2005 8 8 Edgar Renteria BOS T1E R 28   153 227 398 30 90 .954   2005 8 8 Edgar Renteria 620 170 36 4 8 101 70 55 0 99 3 6 5 9 4 15 .274 .334 .384 .718 80   11.1 2.7 13.8 .073 .018 .090 11.54 2005 8 8 Edgar Renteria
     
2006 12 11 Alex Gonzalez BOS 3E R 29   111 163 305 7 68 .985   2006 12 11 Alex Gonzalez 388 99 24 2 9 48 50 22 1 67 5 7 7 1 0 6 .255 .299 .397 .696 45   2.9 5.8 8.7 .026 .052 .078 6.92 2006 12 11 Alex Gonzalez
2006 15 Alex Cora BOS 3E L 27   63 66 166 6 46 .975   2006 15 Alex Cora 166 40 4 2 1 23 12 16 1 20 5 2 0 4 1 4 .241 .326 .307 .633 18   1.1 3.2 4.3 .017 .051 .068 3.19 2006 15 Alex Cora
     
2007 10 10 Julio Lugo BOS 1E R 31   145 214 360 19 70 .968   2007 10 10 Julio Lugo 565 134 36 2 8 70 73 48 0 81 0 8 4 32 4 9 .237 .295 .350 .645 63   5.5 6.7 12.2 .038 .046 .084 10.51 2007 10 10 Julio Lugo
2007 19 Alex Cora BOS 1E L 31 2B   33 25 69 3 18 .969   2007 19 Alex Cora 80 16 4 3 0 9 5 2 0 8 4 2 1 0 0 2 .200 .253 .325 .578 7   0.2 1.2 1.4 .006 .036 .042 0.85 2007 19 Alex Cora
     
2008 27 14 Julio Lugo BOS 2E R 32   81 100 176 16 34 .945   2008 27 14 Julio Lugo 260 70 13 0 1 27 22 34 0 51 4 3 5 12 4 13 .269 .356 .331 .687 32   - 1.8 1.8 .000 .022 .022 0.82 2008 27 14 Julio Lugo
2008 21 Alex Cora BOS 2E L 32   69 74 136 6 39 .972   2008 21 Alex Cora 138 36 7 2 0 10 8 13 1 12 9 1 1 1 1 2 .261 .360 .341 .701 18   1.7 1.9 3.6 .025 .028 .052 2.52 2008 21 Alex Cora
2008 17 Jed Lowrie BOS 2E B 24 3B   49 46 109 0 21 1.000   2008 17 Jed Lowrie 158 43 17 2 1 20 29 23 0 44 1 1 4 0 0 4 .272 .360 .424 .784 26   3.2 1.3 4.5 .065 .027 .092 4.19 2008 17 Jed Lowrie
     
2009 17 12 Nick Green BOS 2E R 30   81 104 198 14 41 .956   2009 17 12 Nick Green 242 55 17 0 5 28 31 17 1 61 8 2 3 1 4 7 .227 .296 .360 .656 25   1.4 3.3 4.7 .017 .041 .058 3.44 2009 17 12 Nick Green
2009 20 Alex Gonzalez BOS 2E R 32 NL-SS   44 51 107 1 17 .994   2009 20 Alex Gonzalez 148 42 10 0 5 26 15 5 0 29 2 4 0 2 0 4 .284 .316 .453 .769 20   1.1 1.9 3.0 .025 .043 .068 2.38 2009 20 Alex Gonzalez
2009 21 Julio Lugo BOS 2E R 33 NL-2B,SS   32 39 51 7 8 .928   2009 21 Julio Lugo 101 26 4 0 1 12 8 12 0 17 0 0 1 3 0 0 .257 .333 .327 .660 12   1.6 0.8 2.4 .050 .025 .075 1.99 2009 21 Julio Lugo
2009 33 Jed Lowrie BOS 2E B 25   26 22 52 1 16 .987   2009 33 Jed Lowrie 62 8 2 0 1 3 7 6 0 19 0 0 2 0 0 0 .129 .200 .210 .410 3   - 0.9 0.9 .000 .035 .035 0.51 2009 33 Jed Lowrie
     
2010 8 8 Marco Scutaro BOS 3E R 34   132 152 344 18 57 .965   2010 8 8 Marco Scutaro 561 156 33 0 10 79 52 48 1 63 3 4 3 3 4 13 .278 .337 .390 .727 73   10.3 2.2 12.5 .078 .017 .095 11.95 2010 8 8 Marco Scutaro
2010 15 Jed Lowrie BOS 3E B 26 2B   23 26 46 1 17 .986   2010 15 Jed Lowrie 71 23 5 0 6 17 13 11 0 11 1 0 0 1 1 0 .324 .422 .648 1.070 20   3.6 0.3 3.9 .157 .013 .170 4.99 2010 15 Jed Lowrie
Copyright 2009-11 by Andre Lower
Sources:
All-Time Major League Handbook
Win Shares Digital Update
baseball-reference.com
ESPN Baseball Encyclopedia